sensor_id;sensor_type;location;lat;lon;timestamp;temperature;humidity
18207;DHT22;9229;52.354;20.886;2022-12-24T00:02:43;5.70;99.90
18207;DHT22;9229;52.354;20.886;2022-12-24T00:07:45;5.60;99.90
18207;DHT22;9229;52.354;20.886;2022-12-24T00:12:48;5.60;99.90
18207;DHT22;9229;52.354;20.886;2022-12-24T00:17:53;5.60;99.90
18207;DHT22;9229;52.354;20.886;2022-12-24T00:22:55;5.60;99.90
18207;DHT22;9229;52.354;20.886;2022-12-24T00:27:59;5.60;99.90
18207;DHT22;9229;52.354;20.886;2022-12-24T00:33:01;5.40;99.90
18207;DHT22;9229;52.354;20.886;2022-12-24T00:38:04;5.50;99.90
18207;DHT22;9229;52.354;20.886;2022-12-24T00:43:08;5.50;99.90
18207;DHT22;9229;52.354;20.886;2022-12-24T00:48:10;5.50;99.90
18207;DHT22;9229;52.354;20.886;2022-12-24T00:53:12;5.60;99.90
18207;DHT22;9229;52.354;20.886;2022-12-24T00:58:15;5.60;99.90
18207;DHT22;9229;52.354;20.886;2022-12-24T01:03:17;5.60;99.90
18207;DHT22;9229;52.354;20.886;2022-12-24T01:08:19;5.60;99.90
18207;DHT22;9229;52.354;20.886;2022-12-24T01:13:23;5.60;99.90
18207;DHT22;9229;52.354;20.886;2022-12-24T01:18:25;5.50;99.90
18207;DHT22;9229;52.354;20.886;2022-12-24T01:23:28;5.50;99.90
18207;DHT22;9229;52.354;20.886;2022-12-24T01:28:32;5.50;99.90
18207;DHT22;9229;52.354;20.886;2022-12-24T01:33:34;5.50;99.90
18207;DHT22;9229;52.354;20.886;2022-12-24T01:38:36;5.50;99.90
18207;DHT22;9229;52.354;20.886;2022-12-24T01:43:40;5.50;99.90
18207;DHT22;9229;52.354;20.886;2022-12-24T01:48:44;5.50;99.90
18207;DHT22;9229;52.354;20.886;2022-12-24T01:53:51;5.60;99.90
18207;DHT22;9229;52.354;20.886;2022-12-24T01:58:59;5.40;99.90
18207;DHT22;9229;52.354;20.886;2022-12-24T02:04:05;5.40;99.90
18207;DHT22;9229;52.354;20.886;2022-12-24T02:09:10;5.40;99.90
18207;DHT22;9229;52.354;20.886;2022-12-24T02:14:14;5.30;99.90
18207;DHT22;9229;52.354;20.886;2022-12-24T02:19:53;5.30;99.90
18207;DHT22;9229;52.354;20.886;2022-12-24T02:25:23;5.40;99.90
18207;DHT22;9229;52.354;20.886;2022-12-24T02:30:30;5.40;99.90
18207;DHT22;9229;52.354;20.886;2022-12-24T02:35:44;5.40;99.90
18207;DHT22;9229;52.354;20.886;2022-12-24T02:40:51;5.40;99.90
18207;DHT22;9229;52.354;20.886;2022-12-24T02:45:58;5.40;99.90
18207;DHT22;9229;52.354;20.886;2022-12-24T02:51:04;5.40;99.90
18207;DHT22;9229;52.354;20.886;2022-12-24T02:56:34;5.40;99.90
18207;DHT22;9229;52.354;20.886;2022-12-24T03:01:47;5.40;99.90
18207;DHT22;9229;52.354;20.886;2022-12-24T03:06:55;5.40;99.90
18207;DHT22;9229;52.354;20.886;2022-12-24T03:12:04;5.40;99.90
18207;DHT22;9229;52.354;20.886;2022-12-24T03:17:09;5.40;99.90
18207;DHT22;9229;52.354;20.886;2022-12-24T03:22:12;5.40;99.90
18207;DHT22;9229;52.354;20.886;2022-12-24T03:27:15;5.40;99.90
18207;DHT22;9229;52.354;20.886;2022-12-24T03:32:24;5.40;99.90
18207;DHT22;9229;52.354;20.886;2022-12-24T03:37:26;5.40;99.90
18207;DHT22;9229;52.354;20.886;2022-12-24T03:42:28;5.40;99.90
18207;DHT22;9229;52.354;20.886;2022-12-24T03:47:32;5.40;99.90
18207;DHT22;9229;52.354;20.886;2022-12-24T03:52:34;5.30;99.90
18207;DHT22;9229;52.354;20.886;2022-12-24T03:57:36;5.30;99.90
18207;DHT22;9229;52.354;20.886;2022-12-24T04:02:40;5.30;99.90
18207;DHT22;9229;52.354;20.886;2022-12-24T04:07:42;5.30;99.90
18207;DHT22;9229;52.354;20.886;2022-12-24T04:12:44;5.30;99.90
18207;DHT22;9229;52.354;20.886;2022-12-24T04:17:48;5.30;99.90
18207;DHT22;9229;52.354;20.886;2022-12-24T04:22:52;5.30;99.90
18207;DHT22;9229;52.354;20.886;2022-12-24T04:27:54;5.30;99.90
18207;DHT22;9229;52.354;20.886;2022-12-24T04:32:57;5.40;99.90
18207;DHT22;9229;52.354;20.886;2022-12-24T04:37:59;5.30;99.90
18207;DHT22;9229;52.354;20.886;2022-12-24T04:43:01;5.20;99.90
18207;DHT22;9229;52.354;20.886;2022-12-24T04:48:05;5.20;99.90
18207;DHT22;9229;52.354;20.886;2022-12-24T04:53:07;5.20;99.90
18207;DHT22;9229;52.354;20.886;2022-12-24T04:58:09;5.20;99.90
18207;DHT22;9229;52.354;20.886;2022-12-24T05:03:13;5.20;99.90
18207;DHT22;9229;52.354;20.886;2022-12-24T05:08:15;5.20;99.90
18207;DHT22;9229;52.354;20.886;2022-12-24T05:13:17;5.20;99.90
18207;DHT22;9229;52.354;20.886;2022-12-24T05:18:22;5.20;99.90
18207;DHT22;9229;52.354;20.886;2022-12-24T05:23:24;5.20;99.90
18207;DHT22;9229;52.354;20.886;2022-12-24T05:28:44;5.20;99.90
18207;DHT22;9229;52.354;20.886;2022-12-24T05:33:48;5.20;99.90
18207;DHT22;9229;52.354;20.886;2022-12-24T05:38:50;5.20;99.90
18207;DHT22;9229;52.354;20.886;2022-12-24T05:43:53;5.10;99.90
18207;DHT22;9229;52.354;20.886;2022-12-24T05:48:56;5.10;99.90
18207;DHT22;9229;52.354;20.886;2022-12-24T05:53:58;5.10;99.90
18207;DHT22;9229;52.354;20.886;2022-12-24T05:59:00;5.10;99.90
18207;DHT22;9229;52.354;20.886;2022-12-24T06:04:04;5.10;99.90
18207;DHT22;9229;52.354;20.886;2022-12-24T06:09:06;5.10;99.90
18207;DHT22;9229;52.354;20.886;2022-12-24T06:14:08;5.10;99.90
18207;DHT22;9229;52.354;20.886;2022-12-24T06:19:11;5.20;99.90
18207;DHT22;9229;52.354;20.886;2022-12-24T06:24:13;5.10;99.90
18207;DHT22;9229;52.354;20.886;2022-12-24T06:29:16;5.10;99.90
18207;DHT22;9229;52.354;20.886;2022-12-24T06:34:19;5.10;99.90
18207;DHT22;9229;52.354;20.886;2022-12-24T06:39:22;5.10;99.90
18207;DHT22;9229;52.354;20.886;2022-12-24T06:44:23;5.00;99.90
18207;DHT22;9229;52.354;20.886;2022-12-24T06:49:27;5.00;99.90
18207;DHT22;9229;52.354;20.886;2022-12-24T06:54:29;4.90;99.90
18207;DHT22;9229;52.354;20.886;2022-12-24T06:59:31;5.00;99.90
18207;DHT22;9229;52.354;20.886;2022-12-24T07:04:35;5.00;99.90
18207;DHT22;9229;52.354;20.886;2022-12-24T07:09:37;5.00;99.90
18207;DHT22;9229;52.354;20.886;2022-12-24T07:14:39;5.00;99.90
18207;DHT22;9229;52.354;20.886;2022-12-24T07:19:42;5.00;99.90
18207;DHT22;9229;52.354;20.886;2022-12-24T07:24:44;5.00;99.90
18207;DHT22;9229;52.354;20.886;2022-12-24T07:29:47;5.00;99.90
18207;DHT22;9229;52.354;20.886;2022-12-24T07:34:50;4.80;99.90
18207;DHT22;9229;52.354;20.886;2022-12-24T07:39:52;5.00;99.90
18207;DHT22;9229;52.354;20.886;2022-12-24T07:44:55;4.90;99.90
18207;DHT22;9229;52.354;20.886;2022-12-24T07:49:58;5.00;99.90
18207;DHT22;9229;52.354;20.886;2022-12-24T07:55:00;5.00;99.90
18207;DHT22;9229;52.354;20.886;2022-12-24T08:00:03;5.00;99.90
18207;DHT22;9229;52.354;20.886;2022-12-24T08:05:14;5.00;99.90
18207;DHT22;9229;52.354;20.886;2022-12-24T08:10:16;5.00;99.90
18207;DHT22;9229;52.354;20.886;2022-12-24T08:15:19;5.00;99.90
18207;DHT22;9229;52.354;20.886;2022-12-24T08:20:22;5.00;99.90
18207;DHT22;9229;52.354;20.886;2022-12-24T08:25:24;5.10;99.90
18207;DHT22;9229;52.354;20.886;2022-12-24T08:30:27;5.20;99.90
18207;DHT22;9229;52.354;20.886;2022-12-24T08:35:30;5.20;99.90
18207;DHT22;9229;52.354;20.886;2022-12-24T08:40:32;5.30;99.90
18207;DHT22;9229;52.354;20.886;2022-12-24T08:45:35;5.40;99.90
18207;DHT22;9229;52.354;20.886;2022-12-24T08:50:41;5.50;99.90
18207;DHT22;9229;52.354;20.886;2022-12-24T08:55:43;5.60;99.90
18207;DHT22;9229;52.354;20.886;2022-12-24T09:00:45;5.70;99.90
18207;DHT22;9229;52.354;20.886;2022-12-24T09:05:49;5.70;99.90
18207;DHT22;9229;52.354;20.886;2022-12-24T09:10:53;5.80;99.90
18207;DHT22;9229;52.354;20.886;2022-12-24T09:15:55;5.80;99.90
18207;DHT22;9229;52.354;20.886;2022-12-24T09:21:00;5.90;99.90
18207;DHT22;9229;52.354;20.886;2022-12-24T09:26:04;5.70;99.90
18207;DHT22;9229;52.354;20.886;2022-12-24T09:31:06;5.70;99.90
18207;DHT22;9229;52.354;20.886;2022-12-24T09:36:11;5.50;99.90
18207;DHT22;9229;52.354;20.886;2022-12-24T09:41:20;5.60;99.90
18207;DHT22;9229;52.354;20.886;2022-12-24T09:46:29;5.60;99.90
18207;DHT22;9229;52.354;20.886;2022-12-24T09:51:37;5.60;99.90
18207;DHT22;9229;52.354;20.886;2022-12-24T09:56:43;5.70;99.90
18207;DHT22;9229;52.354;20.886;2022-12-24T10:01:47;5.70;99.90
18207;DHT22;9229;52.354;20.886;2022-12-24T10:06:55;5.90;99.90
18207;DHT22;9229;52.354;20.886;2022-12-24T10:12:03;5.80;99.90
18207;DHT22;9229;52.354;20.886;2022-12-24T10:17:20;5.90;99.90
18207;DHT22;9229;52.354;20.886;2022-12-24T10:22:33;5.90;99.90
18207;DHT22;9229;52.354;20.886;2022-12-24T10:27:38;5.80;99.90
18207;DHT22;9229;52.354;20.886;2022-12-24T10:32:41;6.00;99.90
18207;DHT22;9229;52.354;20.886;2022-12-24T10:37:46;6.00;99.90
18207;DHT22;9229;52.354;20.886;2022-12-24T10:42:49;6.10;99.90
18207;DHT22;9229;52.354;20.886;2022-12-24T10:47:54;6.10;99.90
18207;DHT22;9229;52.354;20.886;2022-12-24T10:53:03;6.10;99.90
18207;DHT22;9229;52.354;20.886;2022-12-24T10:58:12;5.90;99.90
18207;DHT22;9229;52.354;20.886;2022-12-24T11:03:22;6.00;99.90
18207;DHT22;9229;52.354;20.886;2022-12-24T11:08:26;5.90;99.90
18207;DHT22;9229;52.354;20.886;2022-12-24T11:13:31;5.90;99.90
18207;DHT22;9229;52.354;20.886;2022-12-24T11:18:36;5.90;99.90
18207;DHT22;9229;52.354;20.886;2022-12-24T11:23:48;5.90;99.90
18207;DHT22;9229;52.354;20.886;2022-12-24T11:29:08;5.80;99.90
18207;DHT22;9229;52.354;20.886;2022-12-24T11:34:26;5.80;99.90
18207;DHT22;9229;52.354;20.886;2022-12-24T11:39:38;5.80;99.90
18207;DHT22;9229;52.354;20.886;2022-12-24T11:44:48;5.80;99.90
18207;DHT22;9229;52.354;20.886;2022-12-24T11:49:50;5.70;99.90
18207;DHT22;9229;52.354;20.886;2022-12-24T11:55:06;5.90;99.90
18207;DHT22;9229;52.354;20.886;2022-12-24T12:00:13;5.90;99.90
18207;DHT22;9229;52.354;20.886;2022-12-24T12:05:17;5.90;99.90
18207;DHT22;9229;52.354;20.886;2022-12-24T12:10:24;5.90;99.90
18207;DHT22;9229;52.354;20.886;2022-12-24T12:15:32;5.90;99.90
18207;DHT22;9229;52.354;20.886;2022-12-24T12:20:38;6.00;99.90
18207;DHT22;9229;52.354;20.886;2022-12-24T12:25:46;6.00;99.90
18207;DHT22;9229;52.354;20.886;2022-12-24T12:31:00;6.00;99.90
18207;DHT22;9229;52.354;20.886;2022-12-24T12:36:04;6.00;99.90
18207;DHT22;9229;52.354;20.886;2022-12-24T12:41:23;6.00;99.90
18207;DHT22;9229;52.354;20.886;2022-12-24T12:46:36;5.90;99.90
18207;DHT22;9229;52.354;20.886;2022-12-24T12:51:48;5.80;99.90
18207;DHT22;9229;52.354;20.886;2022-12-24T12:56:59;5.80;99.90
18207;DHT22;9229;52.354;20.886;2022-12-24T13:02:16;5.70;99.90
18207;DHT22;9229;52.354;20.886;2022-12-24T13:07:39;5.70;99.90
18207;DHT22;9229;52.354;20.886;2022-12-24T13:13:01;5.60;99.90
18207;DHT22;9229;52.354;20.886;2022-12-24T13:18:25;5.70;99.90
18207;DHT22;9229;52.354;20.886;2022-12-24T13:23:34;5.60;99.90
18207;DHT22;9229;52.354;20.886;2022-12-24T13:28:38;5.60;99.90
18207;DHT22;9229;52.354;20.886;2022-12-24T13:33:48;5.50;99.90
18207;DHT22;9229;52.354;20.886;2022-12-24T13:38:51;5.40;99.90
18207;DHT22;9229;52.354;20.886;2022-12-24T13:44:17;5.40;99.90
18207;DHT22;9229;52.354;20.886;2022-12-24T13:49:26;5.30;99.90
18207;DHT22;9229;52.354;20.886;2022-12-24T13:54:29;5.30;99.90
18207;DHT22;9229;52.354;20.886;2022-12-24T13:59:35;5.20;99.90
18207;DHT22;9229;52.354;20.886;2022-12-24T14:04:38;5.30;99.90
18207;DHT22;9229;52.354;20.886;2022-12-24T14:09:47;5.10;99.90
18207;DHT22;9229;52.354;20.886;2022-12-24T14:14:51;5.10;99.90
18207;DHT22;9229;52.354;20.886;2022-12-24T14:19:57;5.00;99.90
18207;DHT22;9229;52.354;20.886;2022-12-24T14:25:03;4.90;99.90
18207;DHT22;9229;52.354;20.886;2022-12-24T14:30:16;4.80;99.90
18207;DHT22;9229;52.354;20.886;2022-12-24T14:35:22;4.60;99.90
18207;DHT22;9229;52.354;20.886;2022-12-24T14:40:27;4.60;99.90
18207;DHT22;9229;52.354;20.886;2022-12-24T14:45:36;4.50;99.90
18207;DHT22;9229;52.354;20.886;2022-12-24T14:51:03;4.60;99.90
18207;DHT22;9229;52.354;20.886;2022-12-24T14:56:14;4.50;99.90
18207;DHT22;9229;52.354;20.886;2022-12-24T15:01:24;4.50;99.90
18207;DHT22;9229;52.354;20.886;2022-12-24T15:06:28;4.40;99.90
18207;DHT22;9229;52.354;20.886;2022-12-24T15:11:30;4.50;99.90
18207;DHT22;9229;52.354;20.886;2022-12-24T15:16:35;4.30;99.90
18207;DHT22;9229;52.354;20.886;2022-12-24T15:21:39;4.40;99.90
18207;DHT22;9229;52.354;20.886;2022-12-24T15:26:46;4.30;99.90
18207;DHT22;9229;52.354;20.886;2022-12-24T15:31:56;4.30;99.90
18207;DHT22;9229;52.354;20.886;2022-12-24T15:37:02;4.30;99.90
18207;DHT22;9229;52.354;20.886;2022-12-24T15:42:18;4.30;99.90
18207;DHT22;9229;52.354;20.886;2022-12-24T15:47:27;4.20;99.90
18207;DHT22;9229;52.354;20.886;2022-12-24T15:52:30;4.20;99.90
18207;DHT22;9229;52.354;20.886;2022-12-24T15:57:33;4.20;99.90
18207;DHT22;9229;52.354;20.886;2022-12-24T16:02:39;4.20;99.90
18207;DHT22;9229;52.354;20.886;2022-12-24T16:08:24;4.20;99.90
18207;DHT22;9229;52.354;20.886;2022-12-24T16:13:28;4.20;99.90
18207;DHT22;9229;52.354;20.886;2022-12-24T16:18:34;4.20;99.90
18207;DHT22;9229;52.354;20.886;2022-12-24T16:23:44;4.20;99.90
18207;DHT22;9229;52.354;20.886;2022-12-24T16:28:47;4.20;99.90
18207;DHT22;9229;52.354;20.886;2022-12-24T16:34:09;4.10;99.90
18207;DHT22;9229;52.354;20.886;2022-12-24T16:39:42;4.10;99.90
18207;DHT22;9229;52.354;20.886;2022-12-24T16:45:13;4.20;99.90
18207;DHT22;9229;52.354;20.886;2022-12-24T16:50:17;4.10;99.90
18207;DHT22;9229;52.354;20.886;2022-12-24T16:55:19;4.10;99.90
18207;DHT22;9229;52.354;20.886;2022-12-24T17:00:22;4.00;99.90
18207;DHT22;9229;52.354;20.886;2022-12-24T17:05:27;4.10;99.90
18207;DHT22;9229;52.354;20.886;2022-12-24T17:10:31;4.00;99.90
18207;DHT22;9229;52.354;20.886;2022-12-24T17:15:34;4.00;99.90
18207;DHT22;9229;52.354;20.886;2022-12-24T17:20:38;4.00;99.90
18207;DHT22;9229;52.354;20.886;2022-12-24T17:25:40;4.10;99.90
18207;DHT22;9229;52.354;20.886;2022-12-24T17:30:44;3.90;99.90
18207;DHT22;9229;52.354;20.886;2022-12-24T17:35:50;4.00;99.90
18207;DHT22;9229;52.354;20.886;2022-12-24T17:40:59;4.10;99.90
18207;DHT22;9229;52.354;20.886;2022-12-24T17:46:03;3.90;99.90
18207;DHT22;9229;52.354;20.886;2022-12-24T17:51:16;3.90;99.90
18207;DHT22;9229;52.354;20.886;2022-12-24T17:56:19;3.90;99.90
18207;DHT22;9229;52.354;20.886;2022-12-24T18:01:22;3.90;99.90
18207;DHT22;9229;52.354;20.886;2022-12-24T18:06:27;3.90;99.90
18207;DHT22;9229;52.354;20.886;2022-12-24T18:11:31;3.80;99.90
18207;DHT22;9229;52.354;20.886;2022-12-24T18:16:37;3.80;99.90
18207;DHT22;9229;52.354;20.886;2022-12-24T18:22:06;3.80;99.90
18207;DHT22;9229;52.354;20.886;2022-12-24T18:27:09;3.80;99.90
18207;DHT22;9229;52.354;20.886;2022-12-24T18:32:12;3.90;99.90
18207;DHT22;9229;52.354;20.886;2022-12-24T18:37:18;3.70;99.90
18207;DHT22;9229;52.354;20.886;2022-12-24T18:42:20;3.70;99.90
18207;DHT22;9229;52.354;20.886;2022-12-24T18:47:22;3.80;99.90
18207;DHT22;9229;52.354;20.886;2022-12-24T18:52:27;3.60;99.90
18207;DHT22;9229;52.354;20.886;2022-12-24T18:57:32;3.60;99.90
18207;DHT22;9229;52.354;20.886;2022-12-24T19:02:34;3.60;99.90
18207;DHT22;9229;52.354;20.886;2022-12-24T19:07:38;3.60;99.90
18207;DHT22;9229;52.354;20.886;2022-12-24T19:12:45;3.50;99.90
18207;DHT22;9229;52.354;20.886;2022-12-24T19:17:53;3.40;99.90
18207;DHT22;9229;52.354;20.886;2022-12-24T19:22:56;3.50;99.90
18207;DHT22;9229;52.354;20.886;2022-12-24T19:27:59;3.50;99.90
18207;DHT22;9229;52.354;20.886;2022-12-24T19:33:02;3.50;99.90
18207;DHT22;9229;52.354;20.886;2022-12-24T19:38:05;3.50;99.90
18207;DHT22;9229;52.354;20.886;2022-12-24T19:43:08;3.50;99.90
18207;DHT22;9229;52.354;20.886;2022-12-24T19:48:10;3.50;99.90
18207;DHT22;9229;52.354;20.886;2022-12-24T19:53:15;3.60;99.90
18207;DHT22;9229;52.354;20.886;2022-12-24T19:58:17;3.50;99.90
18207;DHT22;9229;52.354;20.886;2022-12-24T20:03:20;3.50;99.90
18207;DHT22;9229;52.354;20.886;2022-12-24T20:08:23;3.50;99.90
18207;DHT22;9229;52.354;20.886;2022-12-24T20:13:25;3.50;99.90
18207;DHT22;9229;52.354;20.886;2022-12-24T20:18:27;3.50;99.90
18207;DHT22;9229;52.354;20.886;2022-12-24T20:23:31;3.50;99.90
18207;DHT22;9229;52.354;20.886;2022-12-24T20:28:35;3.50;99.90
18207;DHT22;9229;52.354;20.886;2022-12-24T20:33:37;3.50;99.90
18207;DHT22;9229;52.354;20.886;2022-12-24T20:38:42;3.40;99.90
18207;DHT22;9229;52.354;20.886;2022-12-24T20:43:44;3.40;99.90
18207;DHT22;9229;52.354;20.886;2022-12-24T20:48:47;3.40;99.90
18207;DHT22;9229;52.354;20.886;2022-12-24T20:53:52;3.40;99.90
18207;DHT22;9229;52.354;20.886;2022-12-24T20:58:54;3.40;99.90
18207;DHT22;9229;52.354;20.886;2022-12-24T21:03:58;3.50;99.90
18207;DHT22;9229;52.354;20.886;2022-12-24T21:09:05;3.40;99.90
18207;DHT22;9229;52.354;20.886;2022-12-24T21:14:08;3.30;99.90
18207;DHT22;9229;52.354;20.886;2022-12-24T21:19:13;3.40;99.90
18207;DHT22;9229;52.354;20.886;2022-12-24T21:24:17;3.40;99.90
18207;DHT22;9229;52.354;20.886;2022-12-24T21:29:20;3.40;99.90
18207;DHT22;9229;52.354;20.886;2022-12-24T21:34:22;3.40;99.90
18207;DHT22;9229;52.354;20.886;2022-12-24T21:39:25;3.50;99.90
18207;DHT22;9229;52.354;20.886;2022-12-24T21:44:28;3.40;99.90
18207;DHT22;9229;52.354;20.886;2022-12-24T21:49:31;3.40;99.90
18207;DHT22;9229;52.354;20.886;2022-12-24T21:54:52;3.40;99.90
18207;DHT22;9229;52.354;20.886;2022-12-24T21:59:56;3.40;99.90
18207;DHT22;9229;52.354;20.886;2022-12-24T22:05:18;3.40;99.90
18207;DHT22;9229;52.354;20.886;2022-12-24T22:10:22;3.40;99.90
18207;DHT22;9229;52.354;20.886;2022-12-24T22:15:43;3.40;99.90
18207;DHT22;9229;52.354;20.886;2022-12-24T22:20:46;3.40;99.90
18207;DHT22;9229;52.354;20.886;2022-12-24T22:25:52;3.40;99.90
18207;DHT22;9229;52.354;20.886;2022-12-24T22:30:54;3.40;99.90
18207;DHT22;9229;52.354;20.886;2022-12-24T22:35:56;3.40;99.90
18207;DHT22;9229;52.354;20.886;2022-12-24T22:41:05;3.40;99.90
18207;DHT22;9229;52.354;20.886;2022-12-24T22:46:09;3.40;99.90
18207;DHT22;9229;52.354;20.886;2022-12-24T22:51:14;3.40;99.90
18207;DHT22;9229;52.354;20.886;2022-12-24T22:56:20;3.40;99.90
18207;DHT22;9229;52.354;20.886;2022-12-24T23:01:31;3.30;99.90
18207;DHT22;9229;52.354;20.886;2022-12-24T23:06:33;3.30;99.90
18207;DHT22;9229;52.354;20.886;2022-12-24T23:11:38;3.30;99.90
18207;DHT22;9229;52.354;20.886;2022-12-24T23:16:40;3.30;99.90
18207;DHT22;9229;52.354;20.886;2022-12-24T23:21:42;3.30;99.90
18207;DHT22;9229;52.354;20.886;2022-12-24T23:26:47;3.30;99.90
18207;DHT22;9229;52.354;20.886;2022-12-24T23:31:49;3.30;99.90
18207;DHT22;9229;52.354;20.886;2022-12-24T23:36:51;3.30;99.90
18207;DHT22;9229;52.354;20.886;2022-12-24T23:41:58;3.30;99.90
18207;DHT22;9229;52.354;20.886;2022-12-24T23:47:00;3.40;99.90
18207;DHT22;9229;52.354;20.886;2022-12-24T23:52:06;3.30;99.90
18207;DHT22;9229;52.354;20.886;2022-12-24T23:57:10;3.20;99.90
